sensor_id;sensor_type;location;lat;lon;timestamp;P1;durP1;ratioP1;P2;durP2;ratioP2
66169;SDS011;52971;44.024;20.456;2022-07-10T00:02:26;4.30;;;2.58;;
66169;SDS011;52971;44.024;20.456;2022-07-10T00:04:51;4.32;;;2.42;;
66169;SDS011;52971;44.024;20.456;2022-07-10T00:07:16;2.83;;;2.45;;
66169;SDS011;52971;44.024;20.456;2022-07-10T00:09:42;3.80;;;2.53;;
66169;SDS011;52971;44.024;20.456;2022-07-10T00:12:07;4.22;;;2.17;;
66169;SDS011;52971;44.024;20.456;2022-07-10T00:14:33;4.95;;;2.88;;
66169;SDS011;52971;44.024;20.456;2022-07-10T00:16:58;4.50;;;2.65;;
66169;SDS011;52971;44.024;20.456;2022-07-10T00:19:24;5.28;;;2.58;;
66169;SDS011;52971;44.024;20.456;2022-07-10T00:21:49;3.58;;;2.28;;
66169;SDS011;52971;44.024;20.456;2022-07-10T00:24:14;5.03;;;2.90;;
66169;SDS011;52971;44.024;20.456;2022-07-10T00:26:40;5.95;;;2.70;;
66169;SDS011;52971;44.024;20.456;2022-07-10T00:29:05;2.83;;;2.28;;
66169;SDS011;52971;44.024;20.456;2022-07-10T00:31:31;3.88;;;2.28;;
66169;SDS011;52971;44.024;20.456;2022-07-10T00:33:57;5.45;;;2.40;;
66169;SDS011;52971;44.024;20.456;2022-07-10T00:36:22;5.03;;;2.10;;
66169;SDS011;52971;44.024;20.456;2022-07-10T00:38:48;3.30;;;2.00;;
66169;SDS011;52971;44.024;20.456;2022-07-10T00:41:13;3.22;;;2.00;;
66169;SDS011;52971;44.024;20.456;2022-07-10T00:43:51;1.95;;;1.67;;
66169;SDS011;52971;44.024;20.456;2022-07-10T00:46:18;2.78;;;1.67;;
66169;SDS011;52971;44.024;20.456;2022-07-10T00:48:45;4.65;;;1.90;;
66169;SDS011;52971;44.024;20.456;2022-07-10T00:51:12;2.65;;;1.80;;
66169;SDS011;52971;44.024;20.456;2022-07-10T00:53:38;3.55;;;2.33;;
66169;SDS011;52971;44.024;20.456;2022-07-10T00:56:05;3.85;;;1.92;;
66169;SDS011;52971;44.024;20.456;2022-07-10T00:58:32;2.08;;;1.65;;
66169;SDS011;52971;44.024;20.456;2022-07-10T01:00:58;3.20;;;1.48;;
66169;SDS011;52971;44.024;20.456;2022-07-10T01:03:24;2.80;;;1.30;;
66169;SDS011;52971;44.024;20.456;2022-07-10T01:05:50;3.72;;;1.75;;
66169;SDS011;52971;44.024;20.456;2022-07-10T01:08:16;3.20;;;1.90;;
66169;SDS011;52971;44.024;20.456;2022-07-10T01:10:41;3.50;;;1.58;;
66169;SDS011;52971;44.024;20.456;2022-07-10T01:13:07;3.35;;;1.17;;
66169;SDS011;52971;44.024;20.456;2022-07-10T01:15:32;3.05;;;1.40;;
66169;SDS011;52971;44.024;20.456;2022-07-10T01:17:58;2.70;;;1.23;;
66169;SDS011;52971;44.024;20.456;2022-07-10T01:20:29;3.40;;;1.48;;
66169;SDS011;52971;44.024;20.456;2022-07-10T01:22:57;2.90;;;1.40;;
66169;SDS011;52971;44.024;20.456;2022-07-10T01:25:22;1.95;;;1.38;;
66169;SDS011;52971;44.024;20.456;2022-07-10T01:27:48;2.17;;;1.45;;
66169;SDS011;52971;44.024;20.456;2022-07-10T01:30:13;2.90;;;1.45;;
66169;SDS011;52971;44.024;20.456;2022-07-10T01:32:39;4.20;;;1.67;;
66169;SDS011;52971;44.024;20.456;2022-07-10T01:35:05;6.07;;;1.38;;
66169;SDS011;52971;44.024;20.456;2022-07-10T01:37:32;4.15;;;1.60;;
66169;SDS011;52971;44.024;20.456;2022-07-10T01:39:58;2.05;;;1.42;;
66169;SDS011;52971;44.024;20.456;2022-07-10T01:42:24;3.22;;;1.10;;
66169;SDS011;52971;44.024;20.456;2022-07-10T01:44:49;2.67;;;1.35;;
66169;SDS011;52971;44.024;20.456;2022-07-10T01:47:14;4.82;;;1.60;;
66169;SDS011;52971;44.024;20.456;2022-07-10T01:49:40;4.65;;;1.50;;
66169;SDS011;52971;44.024;20.456;2022-07-10T01:52:05;2.88;;;1.38;;
66169;SDS011;52971;44.024;20.456;2022-07-10T01:54:31;2.53;;;1.20;;
66169;SDS011;52971;44.024;20.456;2022-07-10T01:56:57;2.88;;;1.38;;
66169;SDS011;52971;44.024;20.456;2022-07-10T01:59:22;5.47;;;1.83;;
66169;SDS011;52971;44.024;20.456;2022-07-10T02:01:47;1.60;;;1.30;;
66169;SDS011;52971;44.024;20.456;2022-07-10T02:04:13;3.45;;;1.45;;
66169;SDS011;52971;44.024;20.456;2022-07-10T02:06:57;3.97;;;1.58;;
66169;SDS011;52971;44.024;20.456;2022-07-10T02:09:22;3.35;;;1.60;;
66169;SDS011;52971;44.024;20.456;2022-07-10T02:11:48;4.13;;;1.48;;
66169;SDS011;52971;44.024;20.456;2022-07-10T02:14:13;2.58;;;1.25;;
66169;SDS011;52971;44.024;20.456;2022-07-10T02:16:39;1.90;;;1.50;;
66169;SDS011;52971;44.024;20.456;2022-07-10T02:19:04;3.40;;;1.52;;
66169;SDS011;52971;44.024;20.456;2022-07-10T02:21:30;4.55;;;1.77;;
66169;SDS011;52971;44.024;20.456;2022-07-10T02:23:55;2.47;;;1.52;;
66169;SDS011;52971;44.024;20.456;2022-07-10T02:26:21;3.30;;;2.30;;
66169;SDS011;52971;44.024;20.456;2022-07-10T02:28:46;2.75;;;1.75;;
66169;SDS011;52971;44.024;20.456;2022-07-10T02:31:12;4.25;;;1.73;;
66169;SDS011;52971;44.024;20.456;2022-07-10T02:33:37;2.83;;;1.67;;
66169;SDS011;52971;44.024;20.456;2022-07-10T02:36:04;2.20;;;1.63;;
66169;SDS011;52971;44.024;20.456;2022-07-10T02:38:29;3.38;;;1.80;;
66169;SDS011;52971;44.024;20.456;2022-07-10T02:40:55;3.00;;;1.77;;
66169;SDS011;52971;44.024;20.456;2022-07-10T02:43:20;3.70;;;2.22;;
66169;SDS011;52971;44.024;20.456;2022-07-10T02:45:46;1.98;;;1.73;;
66169;SDS011;52971;44.024;20.456;2022-07-10T02:48:11;6.70;;;2.00;;
66169;SDS011;52971;44.024;20.456;2022-07-10T02:50:37;1.90;;;1.67;;
66169;SDS011;52971;44.024;20.456;2022-07-10T02:53:02;3.75;;;1.60;;
66169;SDS011;52971;44.024;20.456;2022-07-10T02:55:28;2.80;;;1.70;;
66169;SDS011;52971;44.024;20.456;2022-07-10T02:57:57;3.45;;;1.80;;
66169;SDS011;52971;44.024;20.456;2022-07-10T03:00:23;2.78;;;1.88;;
66169;SDS011;52971;44.024;20.456;2022-07-10T03:02:49;3.33;;;1.60;;
66169;SDS011;52971;44.024;20.456;2022-07-10T03:05:14;2.53;;;1.60;;
66169;SDS011;52971;44.024;20.456;2022-07-10T03:07:40;2.10;;;1.70;;
66169;SDS011;52971;44.024;20.456;2022-07-10T03:10:05;2.40;;;1.27;;
66169;SDS011;52971;44.024;20.456;2022-07-10T03:12:31;2.28;;;1.42;;
66169;SDS011;52971;44.024;20.456;2022-07-10T03:14:57;4.50;;;1.92;;
66169;SDS011;52971;44.024;20.456;2022-07-10T03:17:24;3.88;;;1.40;;
66169;SDS011;52971;44.024;20.456;2022-07-10T03:19:50;2.28;;;1.60;;
66169;SDS011;52971;44.024;20.456;2022-07-10T03:22:15;2.42;;;1.50;;
66169;SDS011;52971;44.024;20.456;2022-07-10T03:24:41;3.92;;;1.73;;
66169;SDS011;52971;44.024;20.456;2022-07-10T03:27:08;3.85;;;1.60;;
66169;SDS011;52971;44.024;20.456;2022-07-10T03:29:34;5.63;;;1.73;;
66169;SDS011;52971;44.024;20.456;2022-07-10T03:31:59;2.83;;;1.90;;
66169;SDS011;52971;44.024;20.456;2022-07-10T03:34:25;3.97;;;1.75;;
66169;SDS011;52971;44.024;20.456;2022-07-10T03:36:50;2.63;;;1.50;;
66169;SDS011;52971;44.024;20.456;2022-07-10T03:39:16;4.25;;;1.85;;
66169;SDS011;52971;44.024;20.456;2022-07-10T03:41:42;1.90;;;1.75;;
66169;SDS011;52971;44.024;20.456;2022-07-10T03:44:07;2.95;;;1.80;;
66169;SDS011;52971;44.024;20.456;2022-07-10T03:46:33;2.65;;;1.77;;
66169;SDS011;52971;44.024;20.456;2022-07-10T03:48:58;3.78;;;1.63;;
66169;SDS011;52971;44.024;20.456;2022-07-10T03:51:24;2.35;;;2.10;;
66169;SDS011;52971;44.024;20.456;2022-07-10T03:53:49;2.78;;;1.73;;
66169;SDS011;52971;44.024;20.456;2022-07-10T03:56:15;2.72;;;1.83;;
66169;SDS011;52971;44.024;20.456;2022-07-10T03:59:00;3.33;;;1.75;;
66169;SDS011;52971;44.024;20.456;2022-07-10T04:01:25;6.10;;;2.20;;
66169;SDS011;52971;44.024;20.456;2022-07-10T04:03:51;6.28;;;2.58;;
66169;SDS011;52971;44.024;20.456;2022-07-10T04:06:16;3.90;;;2.75;;
66169;SDS011;52971;44.024;20.456;2022-07-10T04:08:42;5.32;;;2.35;;
66169;SDS011;52971;44.024;20.456;2022-07-10T04:11:07;4.47;;;2.22;;
66169;SDS011;52971;44.024;20.456;2022-07-10T04:13:32;3.03;;;2.25;;
66169;SDS011;52971;44.024;20.456;2022-07-10T04:15:58;2.42;;;1.73;;
66169;SDS011;52971;44.024;20.456;2022-07-10T04:18:23;3.35;;;1.63;;
66169;SDS011;52971;44.024;20.456;2022-07-10T04:20:49;2.20;;;1.48;;
66169;SDS011;52971;44.024;20.456;2022-07-10T04:23:14;2.78;;;1.67;;
66169;SDS011;52971;44.024;20.456;2022-07-10T04:25:40;3.55;;;1.80;;
66169;SDS011;52971;44.024;20.456;2022-07-10T04:28:05;4.93;;;2.05;;
66169;SDS011;52971;44.024;20.456;2022-07-10T04:30:30;3.10;;;2.30;;
66169;SDS011;52971;44.024;20.456;2022-07-10T04:32:56;3.70;;;3.08;;
66169;SDS011;52971;44.024;20.456;2022-07-10T04:35:22;2.85;;;1.98;;
66169;SDS011;52971;44.024;20.456;2022-07-10T04:37:47;4.15;;;2.70;;
66169;SDS011;52971;44.024;20.456;2022-07-10T04:40:13;4.93;;;2.13;;
66169;SDS011;52971;44.024;20.456;2022-07-10T04:42:39;2.33;;;1.40;;
66169;SDS011;52971;44.024;20.456;2022-07-10T04:45:05;3.78;;;1.60;;
66169;SDS011;52971;44.024;20.456;2022-07-10T04:47:30;2.38;;;1.42;;
66169;SDS011;52971;44.024;20.456;2022-07-10T04:49:56;3.30;;;1.63;;
66169;SDS011;52971;44.024;20.456;2022-07-10T04:52:21;2.90;;;1.52;;
66169;SDS011;52971;44.024;20.456;2022-07-10T04:54:47;4.35;;;1.50;;
66169;SDS011;52971;44.024;20.456;2022-07-10T04:57:12;1.70;;;1.30;;
66169;SDS011;52971;44.024;20.456;2022-07-10T04:59:38;4.75;;;1.63;;
66169;SDS011;52971;44.024;20.456;2022-07-10T05:02:03;2.25;;;1.13;;
66169;SDS011;52971;44.024;20.456;2022-07-10T05:04:29;3.85;;;1.27;;
66169;SDS011;52971;44.024;20.456;2022-07-10T05:06:54;3.72;;;1.20;;
66169;SDS011;52971;44.024;20.456;2022-07-10T05:09:20;2.47;;;0.80;;
66169;SDS011;52971;44.024;20.456;2022-07-10T05:11:45;2.63;;;1.13;;
66169;SDS011;52971;44.024;20.456;2022-07-10T05:14:11;1.35;;;0.52;;
66169;SDS011;52971;44.024;20.456;2022-07-10T05:16:37;3.33;;;0.50;;
66169;SDS011;52971;44.024;20.456;2022-07-10T05:19:02;3.58;;;0.30;;
66169;SDS011;52971;44.024;20.456;2022-07-10T05:21:28;2.25;;;0.47;;
66169;SDS011;52971;44.024;20.456;2022-07-10T05:23:53;5.75;;;0.50;;
66169;SDS011;52971;44.024;20.456;2022-07-10T05:26:19;3.38;;;0.55;;
66169;SDS011;52971;44.024;20.456;2022-07-10T05:28:44;1.25;;;0.30;;
66169;SDS011;52971;44.024;20.456;2022-07-10T05:31:10;3.08;;;0.40;;
66169;SDS011;52971;44.024;20.456;2022-07-10T05:33:36;2.42;;;0.40;;
66169;SDS011;52971;44.024;20.456;2022-07-10T05:36:03;3.58;;;0.30;;
66169;SDS011;52971;44.024;20.456;2022-07-10T05:38:29;1.02;;;0.30;;
66169;SDS011;52971;44.024;20.456;2022-07-10T05:40:54;3.88;;;0.20;;
66169;SDS011;52971;44.024;20.456;2022-07-10T05:43:20;1.27;;;0.38;;
66169;SDS011;52971;44.024;20.456;2022-07-10T05:45:45;3.55;;;0.30;;
66169;SDS011;52971;44.024;20.456;2022-07-10T05:48:12;3.50;;;0.40;;
66169;SDS011;52971;44.024;20.456;2022-07-10T05:50:37;1.45;;;0.30;;
66169;SDS011;52971;44.024;20.456;2022-07-10T05:53:03;1.85;;;0.30;;
66169;SDS011;52971;44.024;20.456;2022-07-10T05:55:29;1.23;;;0.43;;
66169;SDS011;52971;44.024;20.456;2022-07-10T05:57:54;0.95;;;0.30;;
66169;SDS011;52971;44.024;20.456;2022-07-10T06:00:20;1.60;;;0.30;;
66169;SDS011;52971;44.024;20.456;2022-07-10T06:02:46;1.60;;;0.30;;
66169;SDS011;52971;44.024;20.456;2022-07-10T06:05:11;1.40;;;0.28;;
66169;SDS011;52971;44.024;20.456;2022-07-10T06:07:37;1.13;;;0.30;;
66169;SDS011;52971;44.024;20.456;2022-07-10T06:10:03;1.92;;;0.30;;
66169;SDS011;52971;44.024;20.456;2022-07-10T06:12:29;4.00;;;0.30;;
66169;SDS011;52971;44.024;20.456;2022-07-10T06:14:55;1.05;;;0.20;;
66169;SDS011;52971;44.024;20.456;2022-07-10T06:17:20;3.80;;;0.40;;
66169;SDS011;52971;44.024;20.456;2022-07-10T06:19:46;1.15;;;0.20;;
66169;SDS011;52971;44.024;20.456;2022-07-10T06:22:11;1.92;;;0.30;;
66169;SDS011;52971;44.024;20.456;2022-07-10T06:24:55;2.17;;;0.40;;
66169;SDS011;52971;44.024;20.456;2022-07-10T06:27:25;2.17;;;0.70;;
66169;SDS011;52971;44.024;20.456;2022-07-10T06:29:51;1.05;;;0.30;;
66169;SDS011;52971;44.024;20.456;2022-07-10T06:32:16;1.38;;;0.20;;
66169;SDS011;52971;44.024;20.456;2022-07-10T06:34:42;1.70;;;0.30;;
66169;SDS011;52971;44.024;20.456;2022-07-10T06:37:07;0.70;;;0.20;;
66169;SDS011;52971;44.024;20.456;2022-07-10T06:39:33;1.73;;;0.40;;
66169;SDS011;52971;44.024;20.456;2022-07-10T06:42:00;1.20;;;0.30;;
66169;SDS011;52971;44.024;20.456;2022-07-10T06:44:30;1.75;;;0.38;;
66169;SDS011;52971;44.024;20.456;2022-07-10T06:46:55;2.28;;;0.28;;
66169;SDS011;52971;44.024;20.456;2022-07-10T06:49:40;0.77;;;0.30;;
66169;SDS011;52971;44.024;20.456;2022-07-10T06:52:06;1.38;;;0.40;;
66169;SDS011;52971;44.024;20.456;2022-07-10T06:54:32;0.70;;;0.20;;
66169;SDS011;52971;44.024;20.456;2022-07-10T06:56:58;3.53;;;0.32;;
66169;SDS011;52971;44.024;20.456;2022-07-10T06:59:24;0.75;;;0.22;;
66169;SDS011;52971;44.024;20.456;2022-07-10T07:01:49;1.25;;;0.30;;
66169;SDS011;52971;44.024;20.456;2022-07-10T07:04:15;1.80;;;0.47;;
66169;SDS011;52971;44.024;20.456;2022-07-10T07:06:40;4.65;;;0.30;;
66169;SDS011;52971;44.024;20.456;2022-07-10T07:09:06;1.73;;;0.40;;
66169;SDS011;52971;44.024;20.456;2022-07-10T07:11:31;3.17;;;0.40;;
66169;SDS011;52971;44.024;20.456;2022-07-10T07:13:56;2.97;;;0.65;;
66169;SDS011;52971;44.024;20.456;2022-07-10T07:16:22;1.75;;;0.30;;
66169;SDS011;52971;44.024;20.456;2022-07-10T07:19:02;2.45;;;0.20;;
66169;SDS011;52971;44.024;20.456;2022-07-10T07:21:30;2.33;;;0.40;;
66169;SDS011;52971;44.024;20.456;2022-07-10T07:24:14;1.33;;;0.30;;
66169;SDS011;52971;44.024;20.456;2022-07-10T07:26:40;0.77;;;0.38;;
66169;SDS011;52971;44.024;20.456;2022-07-10T07:29:05;2.55;;;0.30;;
66169;SDS011;52971;44.024;20.456;2022-07-10T07:31:31;0.95;;;0.22;;
66169;SDS011;52971;44.024;20.456;2022-07-10T07:33:57;2.72;;;0.40;;
66169;SDS011;52971;44.024;20.456;2022-07-10T07:36:23;2.55;;;0.50;;
66169;SDS011;52971;44.024;20.456;2022-07-10T07:38:48;1.90;;;0.30;;
66169;SDS011;52971;44.024;20.456;2022-07-10T07:41:13;3.00;;;0.30;;
66169;SDS011;52971;44.024;20.456;2022-07-10T07:43:40;0.82;;;0.22;;
66169;SDS011;52971;44.024;20.456;2022-07-10T07:46:06;0.70;;;0.30;;
66169;SDS011;52971;44.024;20.456;2022-07-10T07:48:31;0.70;;;0.20;;
66169;SDS011;52971;44.024;20.456;2022-07-10T07:50:57;1.67;;;0.30;;
66169;SDS011;52971;44.024;20.456;2022-07-10T07:53:23;1.60;;;0.20;;
66169;SDS011;52971;44.024;20.456;2022-07-10T07:55:48;2.00;;;0.55;;
66169;SDS011;52971;44.024;20.456;2022-07-10T07:58:14;1.65;;;0.22;;
66169;SDS011;52971;44.024;20.456;2022-07-10T08:00:39;0.77;;;0.20;;
66169;SDS011;52971;44.024;20.456;2022-07-10T08:03:05;0.50;;;0.20;;
66169;SDS011;52971;44.024;20.456;2022-07-10T08:05:30;1.85;;;0.30;;
66169;SDS011;52971;44.024;20.456;2022-07-10T08:07:57;2.38;;;0.20;;
66169;SDS011;52971;44.024;20.456;2022-07-10T08:10:32;1.55;;;0.20;;
66169;SDS011;52971;44.024;20.456;2022-07-10T08:12:58;2.47;;;0.22;;
66169;SDS011;52971;44.024;20.456;2022-07-10T08:15:23;0.70;;;0.20;;
66169;SDS011;52971;44.024;20.456;2022-07-10T08:17:52;0.65;;;0.20;;
66169;SDS011;52971;44.024;20.456;2022-07-10T08:20:20;1.77;;;0.30;;
66169;SDS011;52971;44.024;20.456;2022-07-10T08:22:47;1.10;;;0.20;;
66169;SDS011;52971;44.024;20.456;2022-07-10T08:25:13;2.28;;;0.30;;
66169;SDS011;52971;44.024;20.456;2022-07-10T08:27:40;0.82;;;0.30;;
66169;SDS011;52971;44.024;20.456;2022-07-10T08:30:06;1.73;;;0.30;;
66169;SDS011;52971;44.024;20.456;2022-07-10T08:32:36;3.25;;;0.40;;
66169;SDS011;52971;44.024;20.456;2022-07-10T08:35:03;0.63;;;0.30;;
66169;SDS011;52971;44.024;20.456;2022-07-10T08:37:29;0.80;;;0.30;;
66169;SDS011;52971;44.024;20.456;2022-07-10T08:39:55;0.60;;;0.20;;
66169;SDS011;52971;44.024;20.456;2022-07-10T08:42:20;1.73;;;0.20;;
66169;SDS011;52971;44.024;20.456;2022-07-10T08:44:46;0.80;;;0.30;;
66169;SDS011;52971;44.024;20.456;2022-07-10T08:47:12;1.60;;;0.20;;
66169;SDS011;52971;44.024;20.456;2022-07-10T08:49:39;4.80;;;0.30;;
66169;SDS011;52971;44.024;20.456;2022-07-10T08:52:33;1.85;;;0.50;;
66169;SDS011;52971;44.024;20.456;2022-07-10T08:55:02;2.90;;;0.20;;
66169;SDS011;52971;44.024;20.456;2022-07-10T08:57:28;3.00;;;0.20;;
66169;SDS011;52971;44.024;20.456;2022-07-10T08:59:54;0.75;;;0.28;;
66169;SDS011;52971;44.024;20.456;2022-07-10T09:02:20;1.08;;;0.10;;
66169;SDS011;52971;44.024;20.456;2022-07-10T09:04:45;1.77;;;0.30;;
66169;SDS011;52971;44.024;20.456;2022-07-10T09:07:11;1.95;;;0.20;;
66169;SDS011;52971;44.024;20.456;2022-07-10T09:09:55;0.45;;;0.10;;
66169;SDS011;52971;44.024;20.456;2022-07-10T09:12:22;1.08;;;0.20;;
66169;SDS011;52971;44.024;20.456;2022-07-10T09:14:49;2.45;;;0.10;;
66169;SDS011;52971;44.024;20.456;2022-07-10T09:17:15;0.60;;;0.10;;
66169;SDS011;52971;44.024;20.456;2022-07-10T09:19:41;0.73;;;0.20;;
66169;SDS011;52971;44.024;20.456;2022-07-10T09:22:08;0.70;;;0.20;;
66169;SDS011;52971;44.024;20.456;2022-07-10T09:24:44;0.43;;;0.10;;
66169;SDS011;52971;44.024;20.456;2022-07-10T09:27:11;0.30;;;0.10;;
66169;SDS011;52971;44.024;20.456;2022-07-10T09:29:46;1.73;;;0.43;;
66169;SDS011;52971;44.024;20.456;2022-07-10T09:32:14;2.25;;;0.10;;
66169;SDS011;52971;44.024;20.456;2022-07-10T09:34:41;0.30;;;0.10;;
66169;SDS011;52971;44.024;20.456;2022-07-10T09:37:19;3.60;;;0.20;;
66169;SDS011;52971;44.024;20.456;2022-07-10T09:47:43;2.15;;;0.30;;
66169;SDS011;52971;44.024;20.456;2022-07-10T09:50:32;1.25;;;0.20;;
66169;SDS011;52971;44.024;20.456;2022-07-10T09:53:07;0.50;;;0.10;;
66169;SDS011;52971;44.024;20.456;2022-07-10T09:55:37;1.00;;;0.20;;
66169;SDS011;52971;44.024;20.456;2022-07-10T09:58:03;1.33;;;0.10;;
66169;SDS011;52971;44.024;20.456;2022-07-10T10:00:34;1.50;;;0.10;;
66169;SDS011;52971;44.024;20.456;2022-07-10T10:03:09;2.25;;;0.10;;
66169;SDS011;52971;44.024;20.456;2022-07-10T10:05:43;0.47;;;0.10;;
66169;SDS011;52971;44.024;20.456;2022-07-10T10:08:12;1.33;;;0.10;;
66169;SDS011;52971;44.024;20.456;2022-07-10T10:10:46;4.43;;;0.10;;
66169;SDS011;52971;44.024;20.456;2022-07-10T10:13:23;0.52;;;0.10;;
66169;SDS011;52971;44.024;20.456;2022-07-10T10:15:52;1.30;;;0.17;;
66169;SDS011;52971;44.024;20.456;2022-07-10T10:18:20;2.38;;;0.10;;
66169;SDS011;52971;44.024;20.456;2022-07-10T10:20:47;1.10;;;0.10;;
66169;SDS011;52971;44.024;20.456;2022-07-10T10:23:21;0.40;;;0.10;;
66169;SDS011;52971;44.024;20.456;2022-07-10T10:25:56;0.85;;;0.10;;
66169;SDS011;52971;44.024;20.456;2022-07-10T10:28:25;0.20;;;0.00;;
66169;SDS011;52971;44.024;20.456;2022-07-10T10:30:55;2.40;;;0.05;;
66169;SDS011;52971;44.024;20.456;2022-07-10T10:35:57;0.65;;;0.10;;
66169;SDS011;52971;44.024;20.456;2022-07-10T10:38:23;0.50;;;0.10;;
66169;SDS011;52971;44.024;20.456;2022-07-10T10:40:49;0.40;;;0.10;;
66169;SDS011;52971;44.024;20.456;2022-07-10T10:43:15;0.30;;;0.10;;
66169;SDS011;52971;44.024;20.456;2022-07-10T10:45:45;1.83;;;0.10;;
66169;SDS011;52971;44.024;20.456;2022-07-10T10:48:14;1.95;;;0.10;;
66169;SDS011;52971;44.024;20.456;2022-07-10T10:50:42;1.08;;;0.20;;
66169;SDS011;52971;44.024;20.456;2022-07-10T10:58:25;0.40;;;0.10;;
66169;SDS011;52971;44.024;20.456;2022-07-10T11:00:52;0.40;;;0.10;;
66169;SDS011;52971;44.024;20.456;2022-07-10T11:05:45;0.55;;;0.10;;
66169;SDS011;52971;44.024;20.456;2022-07-10T11:08:12;2.13;;;0.10;;
66169;SDS011;52971;44.024;20.456;2022-07-10T11:10:45;3.13;;;0.10;;
66169;SDS011;52971;44.024;20.456;2022-07-10T11:13:12;1.75;;;0.20;;
66169;SDS011;52971;44.024;20.456;2022-07-10T11:15:42;0.52;;;0.10;;
66169;SDS011;52971;44.024;20.456;2022-07-10T11:18:13;3.60;;;0.20;;
66169;SDS011;52971;44.024;20.456;2022-07-10T11:20:40;0.50;;;0.10;;
66169;SDS011;52971;44.024;20.456;2022-07-10T11:31:15;1.02;;;0.00;;
66169;SDS011;52971;44.024;20.456;2022-07-10T11:33:42;0.45;;;0.10;;
66169;SDS011;52971;44.024;20.456;2022-07-10T11:36:17;0.60;;;0.15;;
66169;SDS011;52971;44.024;20.456;2022-07-10T11:38:44;0.90;;;0.10;;
66169;SDS011;52971;44.024;20.456;2022-07-10T11:41:16;0.60;;;0.10;;
66169;SDS011;52971;44.024;20.456;2022-07-10T11:43:52;0.88;;;0.20;;
66169;SDS011;52971;44.024;20.456;2022-07-10T11:46:20;2.85;;;1.75;;
66169;SDS011;52971;44.024;20.456;2022-07-10T11:48:48;5.43;;;4.43;;
66169;SDS011;52971;44.024;20.456;2022-07-10T11:53:52;2.25;;;1.02;;
66169;SDS011;52971;44.024;20.456;2022-07-10T11:56:27;1.30;;;1.20;;
66169;SDS011;52971;44.024;20.456;2022-07-10T11:58:54;1.58;;;0.20;;
66169;SDS011;52971;44.024;20.456;2022-07-10T12:01:24;1.08;;;0.13;;
66169;SDS011;52971;44.024;20.456;2022-07-10T12:04:02;0.68;;;0.10;;
66169;SDS011;52971;44.024;20.456;2022-07-10T12:06:32;0.45;;;0.10;;
66169;SDS011;52971;44.024;20.456;2022-07-10T12:09:09;1.83;;;0.10;;
66169;SDS011;52971;44.024;20.456;2022-07-10T12:11:41;1.15;;;0.20;;
66169;SDS011;52971;44.024;20.456;2022-07-10T12:14:13;2.05;;;0.20;;
66169;SDS011;52971;44.024;20.456;2022-07-10T12:16:44;0.80;;;0.30;;
66169;SDS011;52971;44.024;20.456;2022-07-10T12:19:12;0.98;;;0.25;;
66169;SDS011;52971;44.024;20.456;2022-07-10T12:21:43;0.40;;;0.10;;
66169;SDS011;52971;44.024;20.456;2022-07-10T12:24:10;0.40;;;0.10;;
66169;SDS011;52971;44.024;20.456;2022-07-10T12:26:38;3.58;;;0.17;;
66169;SDS011;52971;44.024;20.456;2022-07-10T12:29:04;2.00;;;0.17;;
66169;SDS011;52971;44.024;20.456;2022-07-10T12:31:31;0.40;;;0.10;;
66169;SDS011;52971;44.024;20.456;2022-07-10T12:33:59;3.15;;;0.30;;
66169;SDS011;52971;44.024;20.456;2022-07-10T12:39:24;0.30;;;0.20;;
66169;SDS011;52971;44.024;20.456;2022-07-10T12:44:36;1.52;;;0.40;;
66169;SDS011;52971;44.024;20.456;2022-07-10T12:47:07;0.85;;;0.10;;
66169;SDS011;52971;44.024;20.456;2022-07-10T12:52:26;0.50;;;0.10;;
66169;SDS011;52971;44.024;20.456;2022-07-10T12:55:06;1.75;;;0.10;;
66169;SDS011;52971;44.024;20.456;2022-07-10T13:02:48;0.40;;;0.10;;
66169;SDS011;52971;44.024;20.456;2022-07-10T13:05:25;1.48;;;0.10;;
66169;SDS011;52971;44.024;20.456;2022-07-10T13:07:52;0.40;;;0.10;;
66169;SDS011;52971;44.024;20.456;2022-07-10T13:10:18;0.80;;;0.03;;
66169;SDS011;52971;44.024;20.456;2022-07-10T13:12:44;0.95;;;0.10;;
66169;SDS011;52971;44.024;20.456;2022-07-10T13:15:09;1.75;;;0.00;;
66169;SDS011;52971;44.024;20.456;2022-07-10T13:17:43;0.57;;;0.10;;
66169;SDS011;52971;44.024;20.456;2022-07-10T13:20:09;1.75;;;0.10;;
66169;SDS011;52971;44.024;20.456;2022-07-10T13:22:35;1.13;;;0.00;;
66169;SDS011;52971;44.024;20.456;2022-07-10T13:25:00;1.52;;;0.10;;
66169;SDS011;52971;44.024;20.456;2022-07-10T13:27:26;1.30;;;0.20;;
66169;SDS011;52971;44.024;20.456;2022-07-10T13:29:52;0.68;;;0.30;;
66169;SDS011;52971;44.024;20.456;2022-07-10T13:32:18;1.60;;;0.10;;
66169;SDS011;52971;44.024;20.456;2022-07-10T13:34:43;2.70;;;0.20;;
66169;SDS011;52971;44.024;20.456;2022-07-10T13:37:08;3.15;;;1.05;;
66169;SDS011;52971;44.024;20.456;2022-07-10T13:39:38;0.80;;;0.17;;
66169;SDS011;52971;44.024;20.456;2022-07-10T13:42:04;2.42;;;0.30;;
66169;SDS011;52971;44.024;20.456;2022-07-10T13:44:29;1.45;;;0.10;;
66169;SDS011;52971;44.024;20.456;2022-07-10T13:46:55;3.75;;;2.60;;
66169;SDS011;52971;44.024;20.456;2022-07-10T13:49:21;0.30;;;0.10;;
66169;SDS011;52971;44.024;20.456;2022-07-10T13:51:47;2.83;;;0.40;;
66169;SDS011;52971;44.024;20.456;2022-07-10T13:54:13;3.83;;;1.02;;
66169;SDS011;52971;44.024;20.456;2022-07-10T13:56:39;3.08;;;1.40;;
66169;SDS011;52971;44.024;20.456;2022-07-10T13:59:05;0.52;;;0.17;;
66169;SDS011;52971;44.024;20.456;2022-07-10T14:01:31;0.38;;;0.10;;
66169;SDS011;52971;44.024;20.456;2022-07-10T14:03:56;3.63;;;1.02;;
66169;SDS011;52971;44.024;20.456;2022-07-10T14:06:22;1.45;;;0.30;;
66169;SDS011;52971;44.024;20.456;2022-07-10T14:08:48;1.88;;;1.33;;
66169;SDS011;52971;44.024;20.456;2022-07-10T14:11:13;3.28;;;2.17;;
66169;SDS011;52971;44.024;20.456;2022-07-10T14:13:39;7.43;;;0.10;;
66169;SDS011;52971;44.024;20.456;2022-07-10T14:16:04;1.25;;;0.50;;
66169;SDS011;52971;44.024;20.456;2022-07-10T14:18:30;1.05;;;0.10;;
66169;SDS011;52971;44.024;20.456;2022-07-10T14:21:06;0.57;;;0.10;;
66169;SDS011;52971;44.024;20.456;2022-07-10T14:23:36;1.35;;;0.20;;
66169;SDS011;52971;44.024;20.456;2022-07-10T14:26:04;1.35;;;0.10;;
66169;SDS011;52971;44.024;20.456;2022-07-10T14:28:31;0.60;;;0.10;;
66169;SDS011;52971;44.024;20.456;2022-07-10T14:30:57;0.43;;;0.10;;
66169;SDS011;52971;44.024;20.456;2022-07-10T14:33:25;0.60;;;0.10;;
66169;SDS011;52971;44.024;20.456;2022-07-10T14:35:51;0.95;;;0.10;;
66169;SDS011;52971;44.024;20.456;2022-07-10T14:38:16;0.30;;;0.10;;
66169;SDS011;52971;44.024;20.456;2022-07-10T14:40:42;0.98;;;0.28;;
66169;SDS011;52971;44.024;20.456;2022-07-10T14:43:07;0.30;;;0.10;;
66169;SDS011;52971;44.024;20.456;2022-07-10T14:45:33;0.20;;;0.10;;
66169;SDS011;52971;44.024;20.456;2022-07-10T14:47:58;0.75;;;0.10;;
66169;SDS011;52971;44.024;20.456;2022-07-10T14:50:24;0.73;;;0.10;;
66169;SDS011;52971;44.024;20.456;2022-07-10T14:52:50;0.20;;;0.10;;
66169;SDS011;52971;44.024;20.456;2022-07-10T14:55:16;1.55;;;0.10;;
66169;SDS011;52971;44.024;20.456;2022-07-10T14:57:43;0.77;;;0.10;;
66169;SDS011;52971;44.024;20.456;2022-07-10T15:00:08;0.80;;;0.10;;
66169;SDS011;52971;44.024;20.456;2022-07-10T15:02:35;1.00;;;0.10;;
66169;SDS011;52971;44.024;20.456;2022-07-10T15:05:00;0.35;;;0.10;;
66169;SDS011;52971;44.024;20.456;2022-07-10T15:07:27;0.15;;;0.00;;
66169;SDS011;52971;44.024;20.456;2022-07-10T15:09:53;0.75;;;0.17;;
66169;SDS011;52971;44.024;20.456;2022-07-10T15:12:18;0.60;;;0.10;;
66169;SDS011;52971;44.024;20.456;2022-07-10T15:14:45;0.93;;;0.10;;
66169;SDS011;52971;44.024;20.456;2022-07-10T15:17:11;0.40;;;0.10;;